sensor_id;sensor_type;location;lat;lon;timestamp;temperature;humidity
4509;DHT22;2267;48.816;9.230;2023-06-22T00:01:46;25.50;99.90
4509;DHT22;2267;48.816;9.230;2023-06-22T00:04:13;25.50;99.90
4509;DHT22;2267;48.816;9.230;2023-06-22T00:06:40;25.40;99.90
4509;DHT22;2267;48.816;9.230;2023-06-22T00:09:06;25.40;99.90
4509;DHT22;2267;48.816;9.230;2023-06-22T00:11:34;25.40;99.90
4509;DHT22;2267;48.816;9.230;2023-06-22T00:14:00;25.40;99.90
4509;DHT22;2267;48.816;9.230;2023-06-22T00:16:27;25.40;99.90
4509;DHT22;2267;48.816;9.230;2023-06-22T00:18:54;25.30;99.90
4509;DHT22;2267;48.816;9.230;2023-06-22T00:21:21;25.30;99.90
4509;DHT22;2267;48.816;9.230;2023-06-22T00:23:48;25.30;99.90
4509;DHT22;2267;48.816;9.230;2023-06-22T00:26:15;25.30;99.90
4509;DHT22;2267;48.816;9.230;2023-06-22T00:28:42;25.20;99.90
4509;DHT22;2267;48.816;9.230;2023-06-22T00:31:09;25.20;99.90
4509;DHT22;2267;48.816;9.230;2023-06-22T00:33:35;25.20;99.90
4509;DHT22;2267;48.816;9.230;2023-06-22T00:36:02;25.10;99.90
4509;DHT22;2267;48.816;9.230;2023-06-22T00:38:30;25.10;99.90
4509;DHT22;2267;48.816;9.230;2023-06-22T00:40:57;25.10;99.90
4509;DHT22;2267;48.816;9.230;2023-06-22T00:43:24;25.00;99.90
4509;DHT22;2267;48.816;9.230;2023-06-22T00:45:51;25.00;99.90
4509;DHT22;2267;48.816;9.230;2023-06-22T00:48:19;25.00;99.90
4509;DHT22;2267;48.816;9.230;2023-06-22T00:50:45;25.00;99.90
4509;DHT22;2267;48.816;9.230;2023-06-22T00:53:15;25.00;99.90
4509;DHT22;2267;48.816;9.230;2023-06-22T00:55:44;25.00;99.90
4509;DHT22;2267;48.816;9.230;2023-06-22T00:58:13;24.90;99.90
4509;DHT22;2267;48.816;9.230;2023-06-22T01:00:40;24.90;99.90
4509;DHT22;2267;48.816;9.230;2023-06-22T01:03:08;24.90;99.90
4509;DHT22;2267;48.816;9.230;2023-06-22T01:05:37;24.90;99.90
4509;DHT22;2267;48.816;9.230;2023-06-22T01:08:20;24.80;99.90
4509;DHT22;2267;48.816;9.230;2023-06-22T01:13:48;24.80;99.90
4509;DHT22;2267;48.816;9.230;2023-06-22T01:16:37;24.80;99.90
4509;DHT22;2267;48.816;9.230;2023-06-22T01:21:54;24.70;99.90
4509;DHT22;2267;48.816;9.230;2023-06-22T01:24:27;24.70;99.90
4509;DHT22;2267;48.816;9.230;2023-06-22T01:27:18;24.70;99.90
4509;DHT22;2267;48.816;9.230;2023-06-22T01:29:55;24.70;99.90
4509;DHT22;2267;48.816;9.230;2023-06-22T01:32:30;24.70;99.90
4509;DHT22;2267;48.816;9.230;2023-06-22T01:35:00;24.70;99.90
4509;DHT22;2267;48.816;9.230;2023-06-22T01:37:28;24.70;99.90
4509;DHT22;2267;48.816;9.230;2023-06-22T01:39:55;24.70;99.90
4509;DHT22;2267;48.816;9.230;2023-06-22T01:42:24;24.60;99.90
4509;DHT22;2267;48.816;9.230;2023-06-22T01:44:55;24.60;99.90
4509;DHT22;2267;48.816;9.230;2023-06-22T01:47:24;24.60;99.90
4509;DHT22;2267;48.816;9.230;2023-06-22T01:49:51;24.60;99.90
4509;DHT22;2267;48.816;9.230;2023-06-22T01:52:18;24.60;99.90
4509;DHT22;2267;48.816;9.230;2023-06-22T01:54:47;24.60;99.90
4509;DHT22;2267;48.816;9.230;2023-06-22T01:57:15;24.60;99.90
4509;DHT22;2267;48.816;9.230;2023-06-22T02:00:03;24.60;99.90
4509;DHT22;2267;48.816;9.230;2023-06-22T02:05:19;24.50;99.90
4509;DHT22;2267;48.816;9.230;2023-06-22T02:08:41;24.60;99.90
4509;DHT22;2267;48.816;9.230;2023-06-22T02:10:45;24.50;99.90
4509;DHT22;2267;48.816;9.230;2023-06-22T02:13:13;24.50;99.90
4509;DHT22;2267;48.816;9.230;2023-06-22T02:15:41;24.50;99.90
4509;DHT22;2267;48.816;9.230;2023-06-22T02:18:08;24.50;99.90
4509;DHT22;2267;48.816;9.230;2023-06-22T02:20:39;24.50;99.90
4509;DHT22;2267;48.816;9.230;2023-06-22T02:23:06;24.40;99.90
4509;DHT22;2267;48.816;9.230;2023-06-22T02:25:34;24.40;99.90
4509;DHT22;2267;48.816;9.230;2023-06-22T02:28:02;24.40;99.90
4509;DHT22;2267;48.816;9.230;2023-06-22T02:30:29;24.40;99.90
4509;DHT22;2267;48.816;9.230;2023-06-22T02:32:56;24.40;99.90
4509;DHT22;2267;48.816;9.230;2023-06-22T02:35:29;24.30;99.90
4509;DHT22;2267;48.816;9.230;2023-06-22T02:37:59;24.30;99.90
4509;DHT22;2267;48.816;9.230;2023-06-22T02:40:28;24.30;99.90
4509;DHT22;2267;48.816;9.230;2023-06-22T02:42:57;24.20;99.90
4509;DHT22;2267;48.816;9.230;2023-06-22T02:45:28;24.20;99.90
4509;DHT22;2267;48.816;9.230;2023-06-22T02:47:55;24.20;99.90
4509;DHT22;2267;48.816;9.230;2023-06-22T02:50:23;24.20;99.90
4509;DHT22;2267;48.816;9.230;2023-06-22T02:52:50;24.20;99.90
4509;DHT22;2267;48.816;9.230;2023-06-22T02:55:16;24.20;99.90
4509;DHT22;2267;48.816;9.230;2023-06-22T02:57:43;24.10;99.90
4509;DHT22;2267;48.816;9.230;2023-06-22T03:00:12;24.10;99.90
4509;DHT22;2267;48.816;9.230;2023-06-22T03:02:44;24.10;99.90
4509;DHT22;2267;48.816;9.230;2023-06-22T03:05:12;24.10;99.90
4509;DHT22;2267;48.816;9.230;2023-06-22T03:07:40;24.00;99.90
4509;DHT22;2267;48.816;9.230;2023-06-22T03:10:09;24.00;99.90
4509;DHT22;2267;48.816;9.230;2023-06-22T03:12:40;24.00;99.90
4509;DHT22;2267;48.816;9.230;2023-06-22T03:15:09;24.00;99.90
4509;DHT22;2267;48.816;9.230;2023-06-22T03:17:38;23.90;99.90
4509;DHT22;2267;48.816;9.230;2023-06-22T03:20:06;23.90;99.90
4509;DHT22;2267;48.816;9.230;2023-06-22T03:22:36;23.90;99.90
4509;DHT22;2267;48.816;9.230;2023-06-22T03:25:04;23.90;99.90
4509;DHT22;2267;48.816;9.230;2023-06-22T03:27:31;23.90;99.90
4509;DHT22;2267;48.816;9.230;2023-06-22T03:29:58;23.90;99.90
4509;DHT22;2267;48.816;9.230;2023-06-22T03:32:25;23.90;99.90
4509;DHT22;2267;48.816;9.230;2023-06-22T03:34:54;23.80;99.90
4509;DHT22;2267;48.816;9.230;2023-06-22T03:37:26;23.80;99.90
4509;DHT22;2267;48.816;9.230;2023-06-22T03:39:53;23.80;99.90
4509;DHT22;2267;48.816;9.230;2023-06-22T03:42:20;23.80;99.90
4509;DHT22;2267;48.816;9.230;2023-06-22T03:44:47;23.70;99.90
4509;DHT22;2267;48.816;9.230;2023-06-22T03:47:14;23.70;99.90
4509;DHT22;2267;48.816;9.230;2023-06-22T03:49:41;23.70;99.90
4509;DHT22;2267;48.816;9.230;2023-06-22T03:52:08;23.70;99.90
4509;DHT22;2267;48.816;9.230;2023-06-22T03:54:34;23.60;99.90
4509;DHT22;2267;48.816;9.230;2023-06-22T03:57:01;23.60;99.90
4509;DHT22;2267;48.816;9.230;2023-06-22T03:59:28;23.60;99.90
4509;DHT22;2267;48.816;9.230;2023-06-22T04:01:55;23.60;99.90
4509;DHT22;2267;48.816;9.230;2023-06-22T04:04:22;23.60;99.90
4509;DHT22;2267;48.816;9.230;2023-06-22T04:06:49;23.60;99.90
4509;DHT22;2267;48.816;9.230;2023-06-22T04:09:16;23.60;99.90
4509;DHT22;2267;48.816;9.230;2023-06-22T04:11:42;23.60;99.90
4509;DHT22;2267;48.816;9.230;2023-06-22T04:14:09;23.60;99.90
4509;DHT22;2267;48.816;9.230;2023-06-22T04:16:36;23.60;99.90
4509;DHT22;2267;48.816;9.230;2023-06-22T04:19:03;23.60;99.90
4509;DHT22;2267;48.816;9.230;2023-06-22T04:21:30;23.60;99.90
4509;DHT22;2267;48.816;9.230;2023-06-22T04:23:56;23.60;99.90
4509;DHT22;2267;48.816;9.230;2023-06-22T04:26:23;23.60;99.90
4509;DHT22;2267;48.816;9.230;2023-06-22T04:28:50;23.60;99.90
4509;DHT22;2267;48.816;9.230;2023-06-22T04:31:18;23.60;99.90
4509;DHT22;2267;48.816;9.230;2023-06-22T04:33:48;23.70;99.90
4509;DHT22;2267;48.816;9.230;2023-06-22T04:36:14;23.70;99.90
4509;DHT22;2267;48.816;9.230;2023-06-22T04:38:41;23.70;99.90
4509;DHT22;2267;48.816;9.230;2023-06-22T04:41:09;23.70;99.90
4509;DHT22;2267;48.816;9.230;2023-06-22T04:43:50;23.70;99.90
4509;DHT22;2267;48.816;9.230;2023-06-22T04:46:20;23.70;99.90
4509;DHT22;2267;48.816;9.230;2023-06-22T04:48:47;23.70;99.90
4509;DHT22;2267;48.816;9.230;2023-06-22T04:51:14;23.80;99.90
4509;DHT22;2267;48.816;9.230;2023-06-22T04:53:41;23.80;99.90
4509;DHT22;2267;48.816;9.230;2023-06-22T04:56:09;23.70;99.90
4509;DHT22;2267;48.816;9.230;2023-06-22T04:58:36;23.70;99.90
4509;DHT22;2267;48.816;9.230;2023-06-22T05:01:02;23.80;99.90
4509;DHT22;2267;48.816;9.230;2023-06-22T05:03:30;23.80;99.90
4509;DHT22;2267;48.816;9.230;2023-06-22T05:05:57;23.80;99.90
4509;DHT22;2267;48.816;9.230;2023-06-22T05:08:24;23.80;99.90
4509;DHT22;2267;48.816;9.230;2023-06-22T05:10:53;23.90;99.90
4509;DHT22;2267;48.816;9.230;2023-06-22T05:13:31;23.90;99.90
4509;DHT22;2267;48.816;9.230;2023-06-22T05:15:58;23.90;99.90
4509;DHT22;2267;48.816;9.230;2023-06-22T05:18:29;23.90;99.90
4509;DHT22;2267;48.816;9.230;2023-06-22T05:20:58;24.00;99.90
4509;DHT22;2267;48.816;9.230;2023-06-22T05:23:25;24.00;99.90
4509;DHT22;2267;48.816;9.230;2023-06-22T05:25:52;24.00;99.90
4509;DHT22;2267;48.816;9.230;2023-06-22T05:28:20;24.00;99.90
4509;DHT22;2267;48.816;9.230;2023-06-22T05:30:50;24.10;99.90
4509;DHT22;2267;48.816;9.230;2023-06-22T05:33:17;24.10;99.90
4509;DHT22;2267;48.816;9.230;2023-06-22T05:35:44;24.10;99.90
4509;DHT22;2267;48.816;9.230;2023-06-22T05:38:11;24.20;99.90
4509;DHT22;2267;48.816;9.230;2023-06-22T05:40:37;24.20;99.90
4509;DHT22;2267;48.816;9.230;2023-06-22T05:43:04;24.20;99.90
4509;DHT22;2267;48.816;9.230;2023-06-22T05:45:31;24.20;99.90
4509;DHT22;2267;48.816;9.230;2023-06-22T05:47:58;24.20;99.90
4509;DHT22;2267;48.816;9.230;2023-06-22T05:50:25;24.30;99.90
4509;DHT22;2267;48.816;9.230;2023-06-22T05:52:52;24.30;99.90
4509;DHT22;2267;48.816;9.230;2023-06-22T05:55:18;24.30;99.90
4509;DHT22;2267;48.816;9.230;2023-06-22T05:57:45;24.40;99.90
4509;DHT22;2267;48.816;9.230;2023-06-22T06:00:12;24.40;99.90
4509;DHT22;2267;48.816;9.230;2023-06-22T06:02:40;24.40;99.90
4509;DHT22;2267;48.816;9.230;2023-06-22T06:05:11;24.30;99.90
4509;DHT22;2267;48.816;9.230;2023-06-22T06:07:44;24.40;99.90
4509;DHT22;2267;48.816;9.230;2023-06-22T06:10:11;24.40;99.90
4509;DHT22;2267;48.816;9.230;2023-06-22T06:12:38;24.50;99.90
4509;DHT22;2267;48.816;9.230;2023-06-22T06:15:05;24.50;99.90
4509;DHT22;2267;48.816;9.230;2023-06-22T06:17:45;24.50;99.90
4509;DHT22;2267;48.816;9.230;2023-06-22T06:20:12;24.60;99.90
4509;DHT22;2267;48.816;9.230;2023-06-22T06:22:39;24.70;99.90
4509;DHT22;2267;48.816;9.230;2023-06-22T06:25:06;24.80;99.90
4509;DHT22;2267;48.816;9.230;2023-06-22T06:27:33;24.90;99.90
4509;DHT22;2267;48.816;9.230;2023-06-22T06:30:00;24.90;99.90
4509;DHT22;2267;48.816;9.230;2023-06-22T06:32:26;25.00;99.90
4509;DHT22;2267;48.816;9.230;2023-06-22T06:34:53;25.10;99.90
4509;DHT22;2267;48.816;9.230;2023-06-22T06:37:20;25.20;99.90
4509;DHT22;2267;48.816;9.230;2023-06-22T06:39:47;25.20;99.90
4509;DHT22;2267;48.816;9.230;2023-06-22T06:42:14;25.20;99.90
4509;DHT22;2267;48.816;9.230;2023-06-22T06:44:41;25.30;99.90
4509;DHT22;2267;48.816;9.230;2023-06-22T06:47:08;25.30;99.90
4509;DHT22;2267;48.816;9.230;2023-06-22T06:49:35;25.30;99.90
4509;DHT22;2267;48.816;9.230;2023-06-22T06:52:02;25.40;99.90
4509;DHT22;2267;48.816;9.230;2023-06-22T06:54:29;25.50;99.90
4509;DHT22;2267;48.816;9.230;2023-06-22T06:56:56;25.50;99.90
4509;DHT22;2267;48.816;9.230;2023-06-22T06:59:23;25.50;99.90
4509;DHT22;2267;48.816;9.230;2023-06-22T07:01:50;25.50;99.90
4509;DHT22;2267;48.816;9.230;2023-06-22T07:04:16;25.50;99.90
4509;DHT22;2267;48.816;9.230;2023-06-22T07:06:43;25.50;99.90
4509;DHT22;2267;48.816;9.230;2023-06-22T07:09:10;25.50;99.90
4509;DHT22;2267;48.816;9.230;2023-06-22T07:11:37;25.50;99.90
4509;DHT22;2267;48.816;9.230;2023-06-22T07:14:04;25.50;99.90
4509;DHT22;2267;48.816;9.230;2023-06-22T07:16:31;25.60;99.90
4509;DHT22;2267;48.816;9.230;2023-06-22T07:18:59;25.60;99.90
4509;DHT22;2267;48.816;9.230;2023-06-22T07:21:26;25.60;99.90
4509;DHT22;2267;48.816;9.230;2023-06-22T07:23:53;25.60;99.90
4509;DHT22;2267;48.816;9.230;2023-06-22T07:26:21;25.80;99.90
4509;DHT22;2267;48.816;9.230;2023-06-22T07:28:48;25.70;99.90
4509;DHT22;2267;48.816;9.230;2023-06-22T07:31:14;25.70;99.90
4509;DHT22;2267;48.816;9.230;2023-06-22T07:33:41;25.70;99.90
4509;DHT22;2267;48.816;9.230;2023-06-22T07:36:08;25.80;99.90
4509;DHT22;2267;48.816;9.230;2023-06-22T07:38:35;25.80;99.90
4509;DHT22;2267;48.816;9.230;2023-06-22T07:41:02;25.80;99.90
4509;DHT22;2267;48.816;9.230;2023-06-22T07:43:32;25.80;99.90
4509;DHT22;2267;48.816;9.230;2023-06-22T07:46:01;25.80;99.90
4509;DHT22;2267;48.816;9.230;2023-06-22T07:48:28;25.90;99.90
4509;DHT22;2267;48.816;9.230;2023-06-22T07:50:55;25.90;99.90
4509;DHT22;2267;48.816;9.230;2023-06-22T07:53:22;25.90;99.80
4509;DHT22;2267;48.816;9.230;2023-06-22T07:55:50;26.00;99.80
4509;DHT22;2267;48.816;9.230;2023-06-22T07:58:17;26.00;99.60
4509;DHT22;2267;48.816;9.230;2023-06-22T08:00:46;26.10;99.80
4509;DHT22;2267;48.816;9.230;2023-06-22T08:03:13;26.10;99.70
4509;DHT22;2267;48.816;9.230;2023-06-22T08:05:40;26.20;99.60
4509;DHT22;2267;48.816;9.230;2023-06-22T08:08:07;26.20;99.20
4509;DHT22;2267;48.816;9.230;2023-06-22T08:10:34;26.30;99.30
4509;DHT22;2267;48.816;9.230;2023-06-22T08:13:01;26.30;99.10
4509;DHT22;2267;48.816;9.230;2023-06-22T08:15:28;26.40;98.90
4509;DHT22;2267;48.816;9.230;2023-06-22T08:17:55;26.40;98.90
4509;DHT22;2267;48.816;9.230;2023-06-22T08:20:22;26.50;98.80
4509;DHT22;2267;48.816;9.230;2023-06-22T08:22:49;26.50;98.40
4509;DHT22;2267;48.816;9.230;2023-06-22T08:25:16;26.60;98.30
4509;DHT22;2267;48.816;9.230;2023-06-22T08:27:46;26.60;98.00
4509;DHT22;2267;48.816;9.230;2023-06-22T08:30:16;26.70;98.30
4509;DHT22;2267;48.816;9.230;2023-06-22T08:32:45;26.70;97.90
4509;DHT22;2267;48.816;9.230;2023-06-22T08:35:12;26.80;98.10
4509;DHT22;2267;48.816;9.230;2023-06-22T08:37:38;26.80;97.90
4509;DHT22;2267;48.816;9.230;2023-06-22T08:40:08;26.90;97.70
4509;DHT22;2267;48.816;9.230;2023-06-22T08:42:40;26.90;97.60
4509;DHT22;2267;48.816;9.230;2023-06-22T08:45:09;27.00;97.60
4509;DHT22;2267;48.816;9.230;2023-06-22T08:47:36;27.00;97.80
4509;DHT22;2267;48.816;9.230;2023-06-22T08:50:03;27.00;97.60
4509;DHT22;2267;48.816;9.230;2023-06-22T08:52:30;27.10;97.50
4509;DHT22;2267;48.816;9.230;2023-06-22T08:54:57;27.10;97.50
4509;DHT22;2267;48.816;9.230;2023-06-22T08:57:27;27.20;97.50
4509;DHT22;2267;48.816;9.230;2023-06-22T08:59:54;27.20;97.40
4509;DHT22;2267;48.816;9.230;2023-06-22T09:02:28;27.30;97.60
4509;DHT22;2267;48.816;9.230;2023-06-22T09:04:58;27.30;97.80
4509;DHT22;2267;48.816;9.230;2023-06-22T09:07:25;27.40;97.60
4509;DHT22;2267;48.816;9.230;2023-06-22T09:09:52;27.40;97.40
4509;DHT22;2267;48.816;9.230;2023-06-22T09:12:20;27.50;97.40
4509;DHT22;2267;48.816;9.230;2023-06-22T09:14:49;27.50;96.70
4509;DHT22;2267;48.816;9.230;2023-06-22T09:17:16;27.50;96.80
4509;DHT22;2267;48.816;9.230;2023-06-22T09:19:43;27.50;96.40
4509;DHT22;2267;48.816;9.230;2023-06-22T09:22:10;27.60;96.40
4509;DHT22;2267;48.816;9.230;2023-06-22T09:24:37;27.60;96.10
4509;DHT22;2267;48.816;9.230;2023-06-22T09:27:04;27.60;96.00
4509;DHT22;2267;48.816;9.230;2023-06-22T09:29:31;27.70;96.20
4509;DHT22;2267;48.816;9.230;2023-06-22T09:32:00;27.70;96.40
4509;DHT22;2267;48.816;9.230;2023-06-22T09:34:27;27.80;96.90
4509;DHT22;2267;48.816;9.230;2023-06-22T09:36:54;27.80;96.60
4509;DHT22;2267;48.816;9.230;2023-06-22T09:39:21;27.80;96.20
4509;DHT22;2267;48.816;9.230;2023-06-22T09:41:48;27.90;96.10
4509;DHT22;2267;48.816;9.230;2023-06-22T09:44:16;27.90;95.50
4509;DHT22;2267;48.816;9.230;2023-06-22T09:46:43;28.00;95.40
4509;DHT22;2267;48.816;9.230;2023-06-22T09:49:10;28.00;95.70
4509;DHT22;2267;48.816;9.230;2023-06-22T09:51:37;28.10;95.30
4509;DHT22;2267;48.816;9.230;2023-06-22T09:54:03;28.10;95.80
4509;DHT22;2267;48.816;9.230;2023-06-22T09:56:30;28.20;95.40
4509;DHT22;2267;48.816;9.230;2023-06-22T09:58:58;28.20;95.00
4509;DHT22;2267;48.816;9.230;2023-06-22T10:01:43;28.30;95.30
4509;DHT22;2267;48.816;9.230;2023-06-22T10:04:10;28.30;95.10
4509;DHT22;2267;48.816;9.230;2023-06-22T10:06:37;28.40;95.00
4509;DHT22;2267;48.816;9.230;2023-06-22T10:09:07;28.40;95.20
4509;DHT22;2267;48.816;9.230;2023-06-22T10:11:34;28.50;94.90
4509;DHT22;2267;48.816;9.230;2023-06-22T10:14:02;28.60;94.80
4509;DHT22;2267;48.816;9.230;2023-06-22T10:16:31;28.60;94.30
4509;DHT22;2267;48.816;9.230;2023-06-22T10:18:58;28.60;94.30
4509;DHT22;2267;48.816;9.230;2023-06-22T10:21:25;28.60;94.30
4509;DHT22;2267;48.816;9.230;2023-06-22T10:23:53;28.60;94.10
4509;DHT22;2267;48.816;9.230;2023-06-22T10:26:21;28.70;94.20
4509;DHT22;2267;48.816;9.230;2023-06-22T10:28:47;28.70;94.60
4509;DHT22;2267;48.816;9.230;2023-06-22T10:31:14;28.80;94.60
4509;DHT22;2267;48.816;9.230;2023-06-22T10:33:43;28.80;94.30
4509;DHT22;2267;48.816;9.230;2023-06-22T10:36:11;28.90;94.80
4509;DHT22;2267;48.816;9.230;2023-06-22T10:38:38;29.00;94.70
4509;DHT22;2267;48.816;9.230;2023-06-22T10:41:05;29.10;94.60
4509;DHT22;2267;48.816;9.230;2023-06-22T10:43:31;29.20;94.40
4509;DHT22;2267;48.816;9.230;2023-06-22T10:45:58;29.20;94.60
4509;DHT22;2267;48.816;9.230;2023-06-22T10:48:25;29.30;94.50
4509;DHT22;2267;48.816;9.230;2023-06-22T10:50:52;29.40;94.20
4509;DHT22;2267;48.816;9.230;2023-06-22T10:53:20;29.50;94.10
4509;DHT22;2267;48.816;9.230;2023-06-22T10:55:50;29.60;93.70
4509;DHT22;2267;48.816;9.230;2023-06-22T10:58:23;29.60;93.10
4509;DHT22;2267;48.816;9.230;2023-06-22T11:00:50;29.60;93.30
4509;DHT22;2267;48.816;9.230;2023-06-22T11:03:17;29.60;93.00
4509;DHT22;2267;48.816;9.230;2023-06-22T11:05:44;29.70;93.10
4509;DHT22;2267;48.816;9.230;2023-06-22T11:08:11;29.70;92.70
4509;DHT22;2267;48.816;9.230;2023-06-22T11:10:37;29.60;92.80
4509;DHT22;2267;48.816;9.230;2023-06-22T11:13:04;29.70;93.30
4509;DHT22;2267;48.816;9.230;2023-06-22T11:15:32;29.70;92.90
4509;DHT22;2267;48.816;9.230;2023-06-22T11:17:59;29.70;92.50
4509;DHT22;2267;48.816;9.230;2023-06-22T11:20:26;29.60;92.30
4509;DHT22;2267;48.816;9.230;2023-06-22T11:22:52;29.60;92.30
4509;DHT22;2267;48.816;9.230;2023-06-22T11:25:19;29.60;92.10
4509;DHT22;2267;48.816;9.230;2023-06-22T11:27:46;29.60;92.20
4509;DHT22;2267;48.816;9.230;2023-06-22T11:30:13;29.60;92.10
4509;DHT22;2267;48.816;9.230;2023-06-22T11:32:40;29.50;92.60
4509;DHT22;2267;48.816;9.230;2023-06-22T11:35:07;29.50;92.90
4509;DHT22;2267;48.816;9.230;2023-06-22T11:37:34;29.60;93.10
4509;DHT22;2267;48.816;9.230;2023-06-22T11:40:01;29.60;92.90
4509;DHT22;2267;48.816;9.230;2023-06-22T11:42:33;29.60;92.80
4509;DHT22;2267;48.816;9.230;2023-06-22T11:45:01;29.70;92.80
4509;DHT22;2267;48.816;9.230;2023-06-22T11:47:29;29.80;92.40
4509;DHT22;2267;48.816;9.230;2023-06-22T11:49:56;29.90;92.30
4509;DHT22;2267;48.816;9.230;2023-06-22T11:52:22;29.90;92.80
4509;DHT22;2267;48.816;9.230;2023-06-22T11:54:49;30.00;93.10
4509;DHT22;2267;48.816;9.230;2023-06-22T11:57:16;30.10;91.80
4509;DHT22;2267;48.816;9.230;2023-06-22T11:59:43;30.20;92.30
4509;DHT22;2267;48.816;9.230;2023-06-22T12:02:10;30.20;91.90
4509;DHT22;2267;48.816;9.230;2023-06-22T12:04:37;30.20;91.80
4509;DHT22;2267;48.816;9.230;2023-06-22T12:07:04;30.20;91.90
4509;DHT22;2267;48.816;9.230;2023-06-22T12:09:31;30.20;91.90
4509;DHT22;2267;48.816;9.230;2023-06-22T12:11:57;30.30;91.60
4509;DHT22;2267;48.816;9.230;2023-06-22T12:14:24;30.20;91.30
4509;DHT22;2267;48.816;9.230;2023-06-22T12:16:51;30.20;91.70
4509;DHT22;2267;48.816;9.230;2023-06-22T12:19:18;30.20;91.50
4509;DHT22;2267;48.816;9.230;2023-06-22T12:21:44;30.10;91.30
4509;DHT22;2267;48.816;9.230;2023-06-22T12:24:12;30.20;91.20
4509;DHT22;2267;48.816;9.230;2023-06-22T12:26:39;30.10;91.30
4509;DHT22;2267;48.816;9.230;2023-06-22T12:29:06;30.10;91.10
4509;DHT22;2267;48.816;9.230;2023-06-22T12:31:33;30.10;91.20
4509;DHT22;2267;48.816;9.230;2023-06-22T12:34:00;30.10;91.00
4509;DHT22;2267;48.816;9.230;2023-06-22T12:36:27;30.10;90.90
4509;DHT22;2267;48.816;9.230;2023-06-22T12:38:53;30.10;91.20
4509;DHT22;2267;48.816;9.230;2023-06-22T12:41:22;30.10;91.00
4509;DHT22;2267;48.816;9.230;2023-06-22T12:43:49;30.00;91.10
4509;DHT22;2267;48.816;9.230;2023-06-22T12:46:15;30.00;91.00
4509;DHT22;2267;48.816;9.230;2023-06-22T12:48:42;30.00;91.00
4509;DHT22;2267;48.816;9.230;2023-06-22T12:51:09;29.90;90.80
4509;DHT22;2267;48.816;9.230;2023-06-22T12:53:36;30.00;90.40
4509;DHT22;2267;48.816;9.230;2023-06-22T12:56:03;29.90;90.60
4509;DHT22;2267;48.816;9.230;2023-06-22T12:58:30;29.90;90.70
4509;DHT22;2267;48.816;9.230;2023-06-22T13:00:57;29.90;90.40
4509;DHT22;2267;48.816;9.230;2023-06-22T13:03:24;29.90;90.00
4509;DHT22;2267;48.816;9.230;2023-06-22T13:05:52;29.90;90.40
4509;DHT22;2267;48.816;9.230;2023-06-22T13:08:19;29.90;90.10
4509;DHT22;2267;48.816;9.230;2023-06-22T13:10:47;29.90;90.30
4509;DHT22;2267;48.816;9.230;2023-06-22T13:13:14;29.90;90.60
4509;DHT22;2267;48.816;9.230;2023-06-22T13:15:41;29.90;90.80
4509;DHT22;2267;48.816;9.230;2023-06-22T13:18:08;29.90;90.90
4509;DHT22;2267;48.816;9.230;2023-06-22T13:20:34;29.90;90.90
4509;DHT22;2267;48.816;9.230;2023-06-22T13:23:01;29.90;90.70
4509;DHT22;2267;48.816;9.230;2023-06-22T13:25:31;29.90;90.80
4509;DHT22;2267;48.816;9.230;2023-06-22T13:27:58;29.90;90.90
4509;DHT22;2267;48.816;9.230;2023-06-22T13:30:25;30.00;91.20
4509;DHT22;2267;48.816;9.230;2023-06-22T13:32:52;30.10;91.20
4509;DHT22;2267;48.816;9.230;2023-06-22T13:35:19;30.20;91.20
4509;DHT22;2267;48.816;9.230;2023-06-22T13:37:46;30.20;91.00
4509;DHT22;2267;48.816;9.230;2023-06-22T13:40:12;30.20;90.50
4509;DHT22;2267;48.816;9.230;2023-06-22T13:42:39;30.30;90.30
4509;DHT22;2267;48.816;9.230;2023-06-22T13:45:07;30.30;90.40
4509;DHT22;2267;48.816;9.230;2023-06-22T13:47:34;30.30;90.60
4509;DHT22;2267;48.816;9.230;2023-06-22T13:50:01;30.30;90.90
4509;DHT22;2267;48.816;9.230;2023-06-22T13:52:28;30.30;90.90
4509;DHT22;2267;48.816;9.230;2023-06-22T13:54:55;30.40;90.90
4509;DHT22;2267;48.816;9.230;2023-06-22T13:57:22;30.40;90.90
4509;DHT22;2267;48.816;9.230;2023-06-22T13:59:48;30.40;91.10
4509;DHT22;2267;48.816;9.230;2023-06-22T14:02:15;30.40;90.80
4509;DHT22;2267;48.816;9.230;2023-06-22T14:04:42;30.40;90.80
4509;DHT22;2267;48.816;9.230;2023-06-22T14:07:09;30.40;90.70
4509;DHT22;2267;48.816;9.230;2023-06-22T14:09:36;30.50;90.80
4509;DHT22;2267;48.816;9.230;2023-06-22T14:12:06;30.50;91.00
4509;DHT22;2267;48.816;9.230;2023-06-22T14:14:34;30.60;91.00
4509;DHT22;2267;48.816;9.230;2023-06-22T14:17:00;30.60;91.00
4509;DHT22;2267;48.816;9.230;2023-06-22T14:19:27;30.70;91.00
4509;DHT22;2267;48.816;9.230;2023-06-22T14:21:54;30.80;89.00
4509;DHT22;2267;48.816;9.230;2023-06-22T14:24:21;31.00;88.70
4509;DHT22;2267;48.816;9.230;2023-06-22T14:26:51;31.10;84.80
4509;DHT22;2267;48.816;9.230;2023-06-22T14:29:18;31.30;83.80
4509;DHT22;2267;48.816;9.230;2023-06-22T14:31:46;31.40;82.00
4509;DHT22;2267;48.816;9.230;2023-06-22T14:34:14;31.50;81.90
4509;DHT22;2267;48.816;9.230;2023-06-22T14:36:42;31.50;82.40
4509;DHT22;2267;48.816;9.230;2023-06-22T14:39:09;31.50;83.10
4509;DHT22;2267;48.816;9.230;2023-06-22T14:41:36;31.50;81.40
4509;DHT22;2267;48.816;9.230;2023-06-22T14:44:03;31.50;79.70
4509;DHT22;2267;48.816;9.230;2023-06-22T14:46:30;31.60;80.30
4509;DHT22;2267;48.816;9.230;2023-06-22T14:48:57;31.70;80.00
4509;DHT22;2267;48.816;9.230;2023-06-22T14:51:24;31.90;80.10
4509;DHT22;2267;48.816;9.230;2023-06-22T14:53:50;32.00;78.10
4509;DHT22;2267;48.816;9.230;2023-06-22T14:56:17;32.20;78.40
4509;DHT22;2267;48.816;9.230;2023-06-22T14:58:44;32.40;78.50
4509;DHT22;2267;48.816;9.230;2023-06-22T15:01:13;32.60;76.90
4509;DHT22;2267;48.816;9.230;2023-06-22T15:03:40;32.60;76.10
4509;DHT22;2267;48.816;9.230;2023-06-22T15:06:08;32.60;76.10
4509;DHT22;2267;48.816;9.230;2023-06-22T15:08:37;32.60;74.90
4509;DHT22;2267;48.816;9.230;2023-06-22T15:11:11;32.60;73.20
4509;DHT22;2267;48.816;9.230;2023-06-22T15:13:41;32.50;72.00
4509;DHT22;2267;48.816;9.230;2023-06-22T15:16:08;32.50;68.20
4509;DHT22;2267;48.816;9.230;2023-06-22T15:18:36;32.50;63.40
4509;DHT22;2267;48.816;9.230;2023-06-22T15:21:04;32.60;62.00
4509;DHT22;2267;48.816;9.230;2023-06-22T15:23:31;32.60;59.20
4509;DHT22;2267;48.816;9.230;2023-06-22T15:26:02;32.70;59.40
4509;DHT22;2267;48.816;9.230;2023-06-22T15:28:31;32.70;59.40
4509;DHT22;2267;48.816;9.230;2023-06-22T15:31:01;32.90;59.20
4509;DHT22;2267;48.816;9.230;2023-06-22T15:33:28;33.00;58.70
4509;DHT22;2267;48.816;9.230;2023-06-22T15:35:55;33.00;58.10
4509;DHT22;2267;48.816;9.230;2023-06-22T15:38:22;33.00;58.70
4509;DHT22;2267;48.816;9.230;2023-06-22T15:40:49;32.90;58.00
4509;DHT22;2267;48.816;9.230;2023-06-22T15:43:16;32.90;57.00
4509;DHT22;2267;48.816;9.230;2023-06-22T15:45:43;32.80;57.90
4509;DHT22;2267;48.816;9.230;2023-06-22T15:48:10;32.70;58.00
4509;DHT22;2267;48.816;9.230;2023-06-22T15:50:36;32.70;57.20
4509;DHT22;2267;48.816;9.230;2023-06-22T15:53:03;32.60;57.20
4509;DHT22;2267;48.816;9.230;2023-06-22T15:55:30;32.60;56.90
4509;DHT22;2267;48.816;9.230;2023-06-22T15:57:58;32.60;56.60
4509;DHT22;2267;48.816;9.230;2023-06-22T16:00:26;32.60;57.10
4509;DHT22;2267;48.816;9.230;2023-06-22T16:02:53;32.50;56.50
4509;DHT22;2267;48.816;9.230;2023-06-22T16:05:20;32.40;56.80
4509;DHT22;2267;48.816;9.230;2023-06-22T16:07:47;32.30;56.90
4509;DHT22;2267;48.816;9.230;2023-06-22T16:10:14;32.30;57.80
4509;DHT22;2267;48.816;9.230;2023-06-22T16:12:43;32.20;58.00
4509;DHT22;2267;48.816;9.230;2023-06-22T16:15:12;32.10;58.00